createdAt,value
2019-01-05T00:01:29.969Z,28.23
2019-01-05T00:04:23.077Z,25.80
2019-01-05T00:07:14.409Z,27.03
2019-01-05T00:10:04.025Z,30.97
2019-01-05T00:12:54.392Z,30.67
2019-01-05T00:15:44.273Z,25.90
2019-01-05T00:18:24.997Z,22.43
2019-01-05T00:21:19.483Z,33.37
2019-01-05T00:24:05.925Z,26.50
2019-01-05T00:26:55.853Z,33.03
2019-01-05T00:29:46.390Z,23.70
2019-01-05T00:32:42.580Z,20.07
2019-01-05T00:35:52.901Z,18.60
2019-01-05T00:38:43.056Z,24.47
2019-01-05T00:41:42.247Z,29.77
2019-01-05T00:44:38.305Z,18.30
2019-01-05T00:47:42.087Z,21.47
2019-01-05T00:50:32.398Z,23.13
2019-01-05T00:53:35.908Z,19.60
2019-01-05T00:56:24.253Z,28.40
2019-01-05T00:59:14.388Z,28.30
2019-01-05T01:02:03.913Z,25.87
2019-01-05T01:05:05.943Z,27.80
2019-01-05T01:07:51.585Z,30.57
2019-01-05T01:10:41.548Z,18.77
2019-01-05T01:13:31.557Z,22.33
2019-01-05T01:16:31.876Z,21.40
2019-01-05T01:19:33.331Z,22.03
2019-01-05T01:22:34.725Z,17.67
2019-01-05T01:25:23.220Z,21.27
2019-01-05T01:28:16.198Z,17.97
2019-01-05T01:31:03.942Z,19.17
2019-01-05T01:33:54.557Z,13.73
2019-01-05T01:36:51.827Z,12.50
2019-01-05T01:39:37.102Z,16.27
2019-01-05T01:42:32.774Z,14.23
2019-01-05T01:45:20.104Z,16.17
2019-01-05T01:48:05.585Z,11.30
2019-01-05T01:51:02.467Z,14.53
2019-01-05T01:53:53.965Z,11.60
2019-01-05T01:56:47.285Z,9.93
2019-01-05T01:59:38.532Z,12.73
2019-01-05T02:02:39.446Z,9.23
2019-01-05T02:05:31.489Z,9.63
2019-01-05T02:08:21.507Z,6.73
2019-01-05T02:11:16.303Z,11.10
2019-01-05T02:14:11.905Z,7.70
2019-01-05T02:17:10.680Z,8.33
2019-01-05T02:20:18.434Z,7.60
2019-01-05T02:23:41.504Z,9.13
2019-01-05T02:26:47.145Z,4.93
2019-01-05T02:30:03.024Z,6.67
2019-01-05T02:33:29.434Z,6.03
2019-01-05T02:36:40.144Z,4.77
2019-01-05T02:40:14.913Z,8.03
2019-01-05T02:43:36.619Z,5.10
2019-01-05T02:47:07.214Z,6.53
2019-01-05T02:50:48.377Z,4.33
2019-01-05T02:54:26.968Z,3.43
2019-01-05T02:57:59.616Z,3.67
2019-01-05T03:01:21.905Z,3.67
2019-01-05T03:04:49.657Z,6.33
2019-01-05T03:08:27.055Z,5.70
2019-01-05T03:11:42.077Z,3.60
2019-01-05T03:15:06.006Z,4.23
2019-01-05T03:18:11.282Z,5.90
2019-01-05T03:21:16.961Z,3.10
2019-01-05T03:24:44.702Z,4.30
2019-01-05T03:28:15.607Z,4.73
2019-01-05T03:31:56.272Z,2.77
2019-01-05T03:35:14.921Z,3.30
2019-01-05T03:38:58.050Z,4.70
2019-01-05T03:42:16.627Z,5.63
2019-01-05T03:45:44.573Z,9.70
2019-01-05T03:49:38.718Z,5.23
2019-01-05T03:53:25.004Z,3.77
2019-01-05T03:57:05.734Z,5.00
2019-01-05T04:00:45.590Z,3.07
2019-01-05T04:04:24.073Z,5.27
2019-01-05T04:07:48.790Z,2.77
2019-01-05T04:11:16.195Z,5.17
2019-01-05T04:14:42.456Z,4.87
2019-01-05T04:18:21.646Z,5.47
2019-01-05T04:21:49.578Z,5.23
2019-01-05T04:25:14.212Z,10.53
2019-01-05T04:28:21.809Z,7.33
2019-01-05T04:31:43.869Z,12.13
2019-01-05T04:35:33.214Z,15.17
2019-01-05T04:39:10.857Z,14.27
2019-01-05T04:42:34.672Z,13.13
2019-01-05T04:46:29.640Z,11.13
2019-01-05T04:49:49.446Z,10.90
2019-01-05T04:53:28.461Z,11.33
2019-01-05T04:56:47.500Z,14.10
2019-01-05T05:00:33.482Z,15.50
2019-01-05T05:04:02.101Z,14.40
2019-01-05T05:07:25.602Z,20.20
2019-01-05T05:11:02.617Z,14.23
2019-01-05T05:14:41.310Z,12.30
2019-01-05T05:18:10.418Z,15.67
2019-01-05T05:21:37.103Z,13.03
2019-01-05T05:25:04.024Z,15.43
2019-01-05T05:28:29.583Z,14.13
2019-01-05T05:31:56.012Z,10.97
2019-01-05T05:35:22.762Z,11.47
2019-01-05T05:38:50.248Z,9.23
2019-01-05T05:42:16.346Z,12.83
2019-01-05T05:45:45.634Z,7.70
2019-01-05T05:49:11.562Z,8.83
2019-01-05T05:53:02.086Z,8.03
2019-01-05T05:56:34.160Z,12.90
2019-01-05T06:00:12.135Z,7.23
2019-01-05T06:03:28.419Z,8.87
2019-01-05T06:06:47.926Z,8.27
2019-01-05T06:09:56.454Z,12.47
2019-01-05T06:13:11.439Z,12.40
2019-01-05T06:16:11.393Z,9.17
2019-01-05T06:19:44.696Z,14.30
2019-01-05T06:23:03.289Z,9.17
2019-01-05T06:26:39.749Z,8.07
2019-01-05T06:30:12.995Z,9.87
2019-01-05T06:33:32.086Z,10.20
2019-01-05T06:37:06.764Z,8.33
2019-01-05T06:40:49.206Z,5.93
2019-01-05T06:44:15.373Z,4.97
2019-01-05T06:47:31.853Z,7.63
2019-01-05T06:50:58.154Z,6.47
2019-01-05T06:54:12.333Z,9.97
2019-01-05T06:57:30.829Z,9.90
2019-01-05T07:00:41.306Z,10.60
2019-01-05T07:04:06.324Z,6.33
2019-01-05T07:07:24.508Z,10.83
2019-01-05T07:10:44.909Z,10.73
2019-01-05T07:14:02.705Z,18.03
2019-01-05T07:17:34.109Z,13.70
2019-01-05T07:20:57.765Z,6.57
2019-01-05T07:24:40.508Z,12.83
2019-01-05T07:28:15.753Z,11.20
2019-01-05T07:31:42.320Z,12.90
2019-01-05T07:34:48.521Z,8.50
2019-01-05T07:38:15.237Z,12.87
2019-01-05T07:41:52.806Z,13.10
2019-01-05T07:45:16.322Z,18.07
2019-01-05T07:49:00.062Z,18.17
2019-01-05T07:52:26.430Z,17.20
2019-01-05T07:56:09.632Z,15.27
2019-01-05T07:59:26.261Z,41.73
2019-01-05T08:02:56.965Z,22.47
2019-01-05T08:06:16.007Z,14.30
2019-01-05T08:09:51.521Z,19.33
2019-01-05T08:13:12.139Z,29.07
2019-01-05T08:16:40.853Z,15.17
2019-01-05T08:20:23.844Z,27.77
2019-01-05T08:23:25.193Z,35.07
2019-01-05T08:26:51.871Z,23.40
2019-01-05T08:30:40.809Z,21.53
2019-01-05T08:34:11.586Z,19.50
2019-01-05T08:37:33.406Z,23.90
2019-01-05T08:41:07.805Z,22.73
2019-01-05T08:44:47.185Z,35.30
2019-01-05T08:48:07.332Z,29.80
2019-01-05T08:51:30.630Z,33.57
2019-01-05T08:55:13.247Z,29.90
2019-01-05T08:58:55.472Z,28.97
2019-01-05T09:02:30.086Z,23.70
2019-01-05T09:05:46.173Z,30.40
2019-01-05T09:09:01.380Z,29.53
2019-01-05T09:12:36.794Z,24.97
2019-01-05T09:16:10.728Z,26.80
2019-01-05T09:19:51.099Z,30.90
2019-01-05T09:23:33.470Z,23.47
2019-01-05T09:27:11.925Z,30.67
2019-01-05T09:30:34.046Z,34.37
2019-01-05T09:33:58.478Z,36.57
2019-01-05T09:37:42.344Z,40.37
2019-01-05T09:41:04.876Z,26.07
2019-01-05T09:44:26.270Z,26.73
2019-01-05T09:47:38.337Z,40.90
2019-01-05T09:51:09.791Z,38.40
2019-01-05T09:54:46.693Z,18.53
2019-01-05T09:58:44.017Z,30.70
2019-01-05T10:02:38.876Z,26.60
2019-01-05T10:06:19.381Z,24.27
2019-01-05T10:10:09.920Z,12.30
2019-01-05T10:13:23.977Z,20.73
2019-01-05T10:16:53.044Z,17.23
2019-01-05T10:20:27.024Z,24.53
2019-01-05T10:23:46.490Z,21.30
2019-01-05T10:27:19.722Z,22.27
2019-01-05T10:31:03.754Z,21.77
2019-01-05T10:34:25.468Z,21.93
2019-01-05T10:38:11.292Z,22.33
2019-01-05T10:41:42.279Z,21.07
2019-01-05T10:44:58.855Z,26.13
2019-01-05T10:48:37.949Z,22.63
2019-01-05T10:51:57.006Z,36.40
2019-01-05T10:55:30.600Z,30.77
2019-01-05T10:58:56.181Z,41.53
2019-01-05T11:02:22.178Z,26.13
2019-01-05T11:05:44.942Z,23.50
2019-01-05T11:09:22.544Z,32.93
2019-01-05T11:12:58.406Z,26.70
2019-01-05T11:16:20.957Z,19.53
2019-01-05T11:19:37.711Z,25.47
2019-01-05T11:22:43.977Z,28.10
2019-01-05T11:26:26.948Z,19.20
2019-01-05T11:29:44.389Z,15.80
2019-01-05T11:33:14.242Z,17.27
2019-01-05T11:36:44.950Z,19.63
2019-01-05T11:40:27.279Z,24.77
2019-01-05T11:44:25.552Z,23.27
2019-01-05T11:48:04.891Z,26.60
2019-01-05T11:51:17.094Z,26.17
2019-01-05T11:54:40.188Z,17.93
2019-01-05T11:57:59.372Z,24.33
2019-01-05T12:01:24.134Z,26.57
2019-01-05T12:04:58.165Z,21.87
2019-01-05T12:08:22.407Z,15.97
2019-01-05T12:11:49.160Z,23.43
2019-01-05T12:15:35.947Z,23.13
2019-01-05T12:18:48.988Z,21.43
2019-01-05T12:22:36.994Z,24.43
2019-01-05T12:25:58.837Z,18.90
2019-01-05T12:29:29.880Z,19.70
2019-01-05T12:33:24.341Z,19.90
2019-01-05T12:36:55.211Z,27.70
2019-01-05T12:40:32.161Z,19.67
2019-01-05T12:44:09.746Z,16.73
2019-01-05T12:47:26.625Z,16.97
2019-01-05T12:50:45.138Z,18.53
2019-01-05T12:54:21.977Z,20.80
2019-01-05T12:58:15.034Z,18.30
2019-01-05T13:01:30.197Z,16.67
2019-01-05T13:05:00.758Z,15.00
2019-01-05T13:08:26.980Z,16.50
2019-01-05T13:11:44.418Z,16.60
2019-01-05T13:15:30.198Z,16.90
2019-01-05T13:19:01.757Z,16.83
2019-01-05T13:22:40.529Z,16.50
2019-01-05T13:26:02.652Z,19.37
2019-01-05T13:29:08.911Z,18.77
2019-01-05T13:32:49.681Z,26.00
2019-01-05T13:36:08.669Z,20.03
2019-01-05T13:40:01.298Z,18.20
2019-01-05T13:43:43.913Z,17.73
2019-01-05T13:47:11.537Z,26.93
2019-01-05T13:50:27.894Z,22.67
2019-01-05T13:53:37.585Z,21.10
2019-01-05T13:56:32.903Z,20.03
2019-01-05T13:59:22.606Z,22.77
2019-01-05T14:02:12.518Z,16.63
2019-01-05T14:05:02.073Z,20.97
2019-01-05T14:07:51.744Z,16.13
2019-01-05T14:10:48.954Z,17.20
2019-01-05T14:13:42.173Z,27.60
2019-01-05T14:16:33.513Z,27.40
2019-01-05T14:19:23.322Z,39.20
2019-01-05T14:22:13.242Z,30.70
2019-01-05T14:24:59.141Z,23.77
2019-01-05T14:27:49.142Z,29.87
2019-01-05T14:30:55.486Z,20.73
2019-01-05T14:33:52.564Z,21.17
2019-01-05T14:36:38.613Z,20.60
2019-01-05T14:39:41.705Z,31.30
2019-01-05T14:42:26.249Z,26.93
2019-01-05T14:45:17.584Z,23.70
2019-01-05T14:48:11.690Z,19.70
2019-01-05T14:50:57.840Z,33.13
2019-01-05T14:53:48.835Z,19.13
2019-01-05T14:56:38.685Z,16.67
2019-01-05T14:59:39.124Z,21.47
2019-01-05T15:02:36.415Z,22.77
2019-01-05T15:05:26.364Z,23.80
2019-01-05T15:08:16.098Z,24.73
2019-01-05T15:11:08.029Z,27.00
2019-01-05T15:13:57.937Z,29.53
2019-01-05T15:16:47.869Z,30.50
2019-01-05T15:19:37.579Z,40.80
2019-01-05T15:22:27.426Z,43.70
2019-01-05T15:25:16.996Z,30.93
2019-01-05T15:28:13.829Z,33.27
2019-01-05T15:31:01.330Z,27.33
2019-01-05T15:33:50.960Z,34.33
2019-01-05T15:36:47.857Z,35.23
2019-01-05T15:39:54.236Z,41.33
2019-01-05T15:42:44.090Z,40.63
2019-01-05T15:45:27.625Z,42.70
2019-01-05T15:48:17.536Z,43.33
2019-01-05T15:51:03.382Z,35.60
2019-01-05T15:53:53.248Z,35.07
2019-01-05T15:56:42.726Z,27.43
2019-01-05T15:59:48.286Z,36.90
2019-01-05T16:02:38.266Z,41.43
2019-01-05T16:05:47.754Z,31.30
2019-01-05T16:08:33.973Z,34.23
2019-01-05T16:11:23.794Z,29.87
2019-01-05T16:14:13.653Z,26.40
2019-01-05T16:17:03.599Z,29.93
2019-01-05T16:19:53.407Z,58.67
2019-01-05T16:22:40.254Z,56.97
2019-01-05T16:25:31.577Z,42.40
2019-01-05T16:28:34.607Z,59.10
2019-01-05T16:31:25.936Z,50.37
2019-01-05T16:34:25.883Z,50.60
2019-01-05T16:37:09.303Z,87.20
2019-01-05T16:40:03.214Z,108.97
2019-01-05T16:42:53.139Z,123.43
2019-01-05T16:45:39.052Z,85.93
2019-01-05T16:48:48.280Z,62.10
2019-01-05T16:51:38.040Z,66.83
2019-01-05T16:54:38.421Z,63.63
2019-01-05T16:57:29.642Z,39.03
2019-01-05T17:00:32.896Z,44.30
2019-01-05T17:03:29.885Z,34.97
2019-01-05T17:06:19.496Z,31.93
2019-01-05T17:09:13.770Z,24.43
2019-01-05T17:12:05.084Z,23.57
2019-01-05T17:14:54.587Z,38.47
2019-01-05T17:17:41.903Z,27.70
2019-01-05T17:20:31.563Z,34.90
2019-01-05T17:23:21.141Z,38.37
2019-01-05T17:26:18.184Z,29.80
2019-01-05T17:29:03.461Z,41.00
2019-01-05T17:31:54.819Z,34.03
2019-01-05T17:34:51.831Z,29.23
2019-01-05T17:37:45.441Z,38.00
2019-01-05T17:40:35.043Z,34.90
2019-01-05T17:43:26.370Z,31.73
2019-01-05T17:46:17.048Z,25.27
2019-01-05T17:49:14.530Z,29.57
2019-01-05T17:52:01.444Z,37.23
2019-01-05T17:54:51.570Z,32.20
2019-01-05T17:57:43.889Z,45.83
2019-01-05T18:00:43.588Z,43.37
2019-01-05T18:03:33.207Z,42.90
2019-01-05T18:06:24.694Z,43.40
2019-01-05T18:09:26.869Z,48.27
2019-01-05T18:12:16.613Z,43.17
2019-01-05T18:15:06.513Z,47.57
2019-01-05T18:17:56.417Z,36.10
2019-01-05T18:20:59.368Z,67.90
2019-01-05T18:24:03.023Z,73.93
2019-01-05T18:26:56.955Z,55.37
2019-01-05T18:29:46.701Z,26.17
2019-01-05T18:32:38.293Z,18.47
2019-01-05T18:35:47.557Z,14.40
2019-01-05T18:38:37.089Z,22.17
2019-01-05T18:41:27.102Z,19.67
2019-01-05T18:44:13.908Z,24.70
2019-01-05T18:47:16.913Z,16.73
2019-01-05T18:50:05.898Z,11.57
2019-01-05T18:53:06.151Z,10.27
2019-01-05T18:55:55.881Z,13.07
2019-01-05T18:58:41.977Z,16.80
2019-01-05T19:01:36.062Z,10.90
2019-01-05T19:04:25.878Z,11.90
2019-01-05T19:07:26.969Z,9.07
2019-01-05T19:10:16.953Z,9.77
2019-01-05T19:13:26.348Z,8.27
2019-01-05T19:16:17.686Z,9.97
2019-01-05T19:19:00.824Z,3.03
2019-01-05T19:21:46.503Z,3.93
2019-01-05T19:24:35.128Z,2.93
2019-01-05T19:27:44.371Z,5.43
2019-01-05T19:30:34.113Z,4.27
2019-01-05T19:33:23.670Z,8.47
2019-01-05T19:36:13.246Z,4.87
2019-01-05T19:39:03.637Z,3.43
2019-01-05T19:41:58.616Z,3.50
2019-01-05T19:44:48.325Z,2.53
2019-01-05T19:47:45.884Z,4.13
2019-01-05T19:50:37.753Z,2.80
2019-01-05T19:53:27.717Z,3.00
2019-01-05T19:56:27.554Z,1.70
2019-01-05T19:59:21.603Z,4.87
2019-01-05T20:02:11.471Z,4.30
2019-01-05T20:05:01.676Z,5.20
2019-01-05T20:07:51.636Z,5.50
2019-01-05T20:10:45.878Z,8.50
2019-01-05T20:13:35.822Z,4.17
2019-01-05T20:16:25.346Z,4.37
2019-01-05T20:19:05.400Z,6.53
2019-01-05T20:21:49.711Z,5.90
2019-01-05T20:24:33.734Z,3.77
2019-01-05T20:27:28.425Z,2.53
2019-01-05T20:30:34.365Z,4.87
2019-01-05T20:33:39.774Z,8.10
2019-01-05T20:36:36.610Z,6.70
2019-01-05T20:39:20.516Z,7.83
2019-01-05T20:42:02.114Z,8.47
2019-01-05T20:44:51.921Z,8.17
2019-01-05T20:47:46.077Z,5.43
2019-01-05T20:50:35.873Z,7.53
2019-01-05T20:53:30.158Z,7.93
2019-01-05T20:56:17.507Z,5.83
2019-01-05T20:59:11.483Z,5.43
2019-01-05T21:02:13.186Z,6.97
2019-01-05T21:05:08.996Z,7.33
2019-01-05T21:07:58.865Z,8.67
2019-01-05T21:10:48.721Z,13.13
2019-01-05T21:13:35.577Z,12.40
2019-01-05T21:16:44.960Z,4.60
2019-01-05T21:19:34.466Z,8.73
2019-01-05T21:22:23.957Z,8.97
2019-01-05T21:25:13.849Z,9.03
2019-01-05T21:28:03.639Z,16.43
2019-01-05T21:31:09.967Z,5.97
2019-01-05T21:33:59.728Z,8.03
2019-01-05T21:37:03.089Z,6.47
2019-01-05T21:39:57.129Z,18.77
2019-01-05T21:42:48.485Z,5.47
2019-01-05T21:45:38.049Z,6.70
2019-01-05T21:48:30.308Z,4.00
2019-01-05T21:51:20.110Z,5.47
2019-01-05T21:54:10.037Z,9.83
2019-01-05T21:57:09.987Z,9.63
2019-01-05T21:59:59.678Z,5.83
2019-01-05T22:02:49.149Z,13.90
2019-01-05T22:05:38.701Z,13.23
2019-01-05T22:08:29.164Z,21.23
2019-01-05T22:11:19.093Z,20.77
2019-01-05T22:14:02.943Z,25.97
2019-01-05T22:16:52.846Z,15.20
2019-01-05T22:19:49.270Z,12.23
2019-01-05T22:22:33.364Z,12.77
2019-01-05T22:25:35.326Z,18.63
2019-01-05T22:28:36.914Z,17.70
2019-01-05T22:31:32.197Z,10.43
2019-01-05T22:34:32.870Z,10.07
2019-01-05T22:37:22.754Z,19.93
2019-01-05T22:40:17.027Z,13.47
2019-01-05T22:43:20.098Z,9.00
2019-01-05T22:46:03.388Z,13.37
2019-01-05T22:49:06.533Z,12.20
2019-01-05T22:52:10.071Z,9.80
2019-01-05T22:54:56.044Z,7.63
2019-01-05T22:57:45.786Z,16.27
2019-01-05T23:00:42.655Z,15.37
2019-01-05T23:03:33.994Z,21.77
2019-01-05T23:06:30.024Z,31.70
2019-01-05T23:09:12.148Z,21.97
2019-01-05T23:12:10.402Z,32.30
2019-01-05T23:15:03.301Z,20.00
2019-01-05T23:18:01.444Z,19.90
2019-01-05T23:20:56.474Z,24.30
2019-01-05T23:23:46.706Z,21.57
2019-01-05T23:26:38.037Z,26.87
2019-01-05T23:29:41.469Z,20.33
2019-01-05T23:32:31.185Z,51.67
2019-01-05T23:35:21.062Z,22.13
2019-01-05T23:38:13.914Z,21.23
2019-01-05T23:41:03.709Z,38.57
2019-01-05T23:44:01.752Z,36.27
2019-01-05T23:47:02.205Z,18.40
2019-01-05T23:49:52.121Z,16.03
2019-01-05T23:52:42.153Z,14.53
2019-01-05T23:55:39.353Z,14.33
2019-01-05T23:58:39.742Z,21.50
